sensor_id;sensor_type;location;lat;lon;timestamp;pressure;altitude;pressure_sealevel;temperature;humidity
7441;BME280;29616;51.950;8.572;2023-07-13T00:01:40;99850.19;;;15.67;100.00
7441;BME280;29616;51.950;8.572;2023-07-13T00:04:11;99851.28;;;15.66;100.00
7441;BME280;29616;51.950;8.572;2023-07-13T00:06:40;99860.88;;;15.56;100.00
7441;BME280;29616;51.950;8.572;2023-07-13T00:09:12;99861.69;;;15.42;100.00
7441;BME280;29616;51.950;8.572;2023-07-13T00:11:41;99844.69;;;15.24;100.00
7441;BME280;29616;51.950;8.572;2023-07-13T00:14:10;99866.13;;;15.28;100.00
7441;BME280;29616;51.950;8.572;2023-07-13T00:16:39;99874.31;;;15.36;100.00
7441;BME280;29616;51.950;8.572;2023-07-13T00:19:18;99876.78;;;15.31;100.00
7441;BME280;29616;51.950;8.572;2023-07-13T00:21:48;99879.53;;;15.31;100.00
7441;BME280;29616;51.950;8.572;2023-07-13T00:24:18;99877.44;;;15.18;100.00
7441;BME280;29616;51.950;8.572;2023-07-13T00:26:51;99875.34;;;15.21;100.00
7441;BME280;29616;51.950;8.572;2023-07-13T00:29:20;99880.69;;;15.22;100.00
7441;BME280;29616;51.950;8.572;2023-07-13T00:31:49;99880.06;;;15.12;100.00
7441;BME280;29616;51.950;8.572;2023-07-13T00:34:21;99888.16;;;15.13;100.00
7441;BME280;29616;51.950;8.572;2023-07-13T00:36:51;99880.13;;;15.04;100.00
7441;BME280;29616;51.950;8.572;2023-07-13T00:39:21;99892.94;;;14.97;100.00
7441;BME280;29616;51.950;8.572;2023-07-13T00:41:52;99890.00;;;14.98;100.00
7441;BME280;29616;51.950;8.572;2023-07-13T00:44:25;99883.03;;;14.88;100.00
7441;BME280;29616;51.950;8.572;2023-07-13T00:46:54;99887.59;;;14.81;100.00
7441;BME280;29616;51.950;8.572;2023-07-13T00:49:30;99876.94;;;14.78;100.00
7441;BME280;29616;51.950;8.572;2023-07-13T00:52:06;99866.16;;;14.53;100.00
7441;BME280;29616;51.950;8.572;2023-07-13T00:54:41;99875.25;;;14.54;100.00
7441;BME280;29616;51.950;8.572;2023-07-13T00:57:15;99852.28;;;14.47;100.00
7441;BME280;29616;51.950;8.572;2023-07-13T00:59:49;99858.47;;;14.49;100.00
7441;BME280;29616;51.950;8.572;2023-07-13T01:02:18;99876.13;;;14.54;100.00
7441;BME280;29616;51.950;8.572;2023-07-13T01:04:50;99873.66;;;14.60;100.00
7441;BME280;29616;51.950;8.572;2023-07-13T01:07:20;99870.72;;;14.61;100.00
7441;BME280;29616;51.950;8.572;2023-07-13T01:09:48;99882.50;;;14.70;100.00
7441;BME280;29616;51.950;8.572;2023-07-13T01:12:19;99869.63;;;14.70;100.00
7441;BME280;29616;51.950;8.572;2023-07-13T01:14:47;99876.94;;;14.78;100.00
7441;BME280;29616;51.950;8.572;2023-07-13T01:17:17;99867.47;;;14.80;100.00
7441;BME280;29616;51.950;8.572;2023-07-13T01:19:45;99875.47;;;14.90;100.00
7441;BME280;29616;51.950;8.572;2023-07-13T01:22:20;99869.97;;;14.90;100.00
7441;BME280;29616;51.950;8.572;2023-07-13T01:24:57;99866.00;;;15.07;100.00
7441;BME280;29616;51.950;8.572;2023-07-13T01:27:26;99869.53;;;15.15;100.00
7441;BME280;29616;51.950;8.572;2023-07-13T01:29:55;99872.69;;;15.27;100.00
7441;BME280;29616;51.950;8.572;2023-07-13T01:32:34;99867.28;;;15.34;100.00
7441;BME280;29616;51.950;8.572;2023-07-13T01:35:04;99879.22;;;15.49;100.00
7441;BME280;29616;51.950;8.572;2023-07-13T01:37:37;99879.50;;;15.54;100.00
7441;BME280;29616;51.950;8.572;2023-07-13T01:40:07;99876.44;;;15.63;100.00
7441;BME280;29616;51.950;8.572;2023-07-13T01:42:37;99877.56;;;15.69;100.00
7441;BME280;29616;51.950;8.572;2023-07-13T01:45:09;99888.78;;;15.82;100.00
7441;BME280;29616;51.950;8.572;2023-07-13T01:47:37;99876.22;;;15.80;100.00
7441;BME280;29616;51.950;8.572;2023-07-13T01:50:09;99890.84;;;15.95;100.00
7441;BME280;29616;51.950;8.572;2023-07-13T01:52:41;99893.22;;;15.98;100.00
7441;BME280;29616;51.950;8.572;2023-07-13T01:55:11;99893.50;;;16.03;100.00
7441;BME280;29616;51.950;8.572;2023-07-13T01:57:44;99893.09;;;16.06;100.00
7441;BME280;29616;51.950;8.572;2023-07-13T02:00:14;99889.97;;;16.09;100.00
7441;BME280;29616;51.950;8.572;2023-07-13T02:02:43;99891.28;;;16.13;100.00
7441;BME280;29616;51.950;8.572;2023-07-13T02:05:15;99893.22;;;16.12;100.00
7441;BME280;29616;51.950;8.572;2023-07-13T02:07:45;99868.78;;;15.95;100.00
7441;BME280;29616;51.950;8.572;2023-07-13T02:10:17;99891.53;;;15.97;100.00
7441;BME280;29616;51.950;8.572;2023-07-13T02:12:47;99875.09;;;15.89;100.00
7441;BME280;29616;51.950;8.572;2023-07-13T02:15:17;99876.72;;;15.83;100.00
7441;BME280;29616;51.950;8.572;2023-07-13T02:17:46;99872.63;;;15.79;100.00
7441;BME280;29616;51.950;8.572;2023-07-13T02:20:15;99882.22;;;15.68;100.00
7441;BME280;29616;51.950;8.572;2023-07-13T02:22:45;99876.16;;;15.58;100.00
7441;BME280;29616;51.950;8.572;2023-07-13T02:25:14;99880.72;;;15.51;100.00
7441;BME280;29616;51.950;8.572;2023-07-13T02:27:45;99885.81;;;15.40;100.00
7441;BME280;29616;51.950;8.572;2023-07-13T02:30:17;99890.81;;;15.22;100.00
7441;BME280;29616;51.950;8.572;2023-07-13T02:32:45;99880.94;;;15.12;100.00
7441;BME280;29616;51.950;8.572;2023-07-13T02:35:14;99885.72;;;14.96;100.00
7441;BME280;29616;51.950;8.572;2023-07-13T02:37:45;99872.31;;;14.78;100.00
7441;BME280;29616;51.950;8.572;2023-07-13T02:40:15;99886.91;;;14.79;100.00
7441;BME280;29616;51.950;8.572;2023-07-13T02:42:51;99889.91;;;14.69;100.00
7441;BME280;29616;51.950;8.572;2023-07-13T02:45:20;99890.84;;;14.62;100.00
7441;BME280;29616;51.950;8.572;2023-07-13T02:47:49;99881.63;;;14.54;100.00
7441;BME280;29616;51.950;8.572;2023-07-13T02:50:19;99879.22;;;14.51;100.00
7441;BME280;29616;51.950;8.572;2023-07-13T02:52:51;99872.19;;;14.49;100.00
7441;BME280;29616;51.950;8.572;2023-07-13T02:55:20;99887.19;;;14.46;100.00
7441;BME280;29616;51.950;8.572;2023-07-13T02:57:49;99882.47;;;14.32;100.00
7441;BME280;29616;51.950;8.572;2023-07-13T03:00:18;99877.88;;;14.17;100.00
7441;BME280;29616;51.950;8.572;2023-07-13T03:02:47;99896.09;;;14.18;100.00
7441;BME280;29616;51.950;8.572;2023-07-13T03:05:16;99892.19;;;14.12;100.00
7441;BME280;29616;51.950;8.572;2023-07-13T03:07:47;99903.09;;;14.28;100.00
7441;BME280;29616;51.950;8.572;2023-07-13T03:10:18;99898.22;;;14.38;100.00
7441;BME280;29616;51.950;8.572;2023-07-13T03:12:49;99886.94;;;14.25;100.00
7441;BME280;29616;51.950;8.572;2023-07-13T03:15:23;99897.25;;;14.31;100.00
7441;BME280;29616;51.950;8.572;2023-07-13T03:17:54;99893.44;;;14.32;100.00
7441;BME280;29616;51.950;8.572;2023-07-13T03:20:23;99899.81;;;14.33;100.00
7441;BME280;29616;51.950;8.572;2023-07-13T03:22:52;99887.63;;;14.27;100.00
7441;BME280;29616;51.950;8.572;2023-07-13T03:25:23;99891.41;;;14.34;100.00
7441;BME280;29616;51.950;8.572;2023-07-13T03:27:52;99905.91;;;14.43;100.00
7441;BME280;29616;51.950;8.572;2023-07-13T03:30:23;99907.66;;;14.44;100.00
7441;BME280;29616;51.950;8.572;2023-07-13T03:32:51;99898.53;;;14.43;100.00
7441;BME280;29616;51.950;8.572;2023-07-13T03:35:20;99904.94;;;14.58;100.00
7441;BME280;29616;51.950;8.572;2023-07-13T03:37:48;99909.91;;;14.63;100.00
7441;BME280;29616;51.950;8.572;2023-07-13T03:40:21;99905.69;;;14.52;100.00
7441;BME280;29616;51.950;8.572;2023-07-13T03:42:50;99906.72;;;14.51;100.00
7441;BME280;29616;51.950;8.572;2023-07-13T03:45:19;99901.13;;;14.45;100.00
7441;BME280;29616;51.950;8.572;2023-07-13T03:47:48;99914.66;;;14.46;100.00
7441;BME280;29616;51.950;8.572;2023-07-13T03:50:18;99919.44;;;14.52;100.00
7441;BME280;29616;51.950;8.572;2023-07-13T03:52:46;99918.28;;;14.47;100.00
7441;BME280;29616;51.950;8.572;2023-07-13T03:55:18;99921.78;;;14.64;100.00
7441;BME280;29616;51.950;8.572;2023-07-13T03:57:53;99916.94;;;14.66;100.00
7441;BME280;29616;51.950;8.572;2023-07-13T04:00:23;99913.84;;;14.69;100.00
7441;BME280;29616;51.950;8.572;2023-07-13T04:02:53;99934.06;;;14.76;100.00
7441;BME280;29616;51.950;8.572;2023-07-13T04:05:23;99938.91;;;14.74;100.00
7441;BME280;29616;51.950;8.572;2023-07-13T04:07:54;99939.28;;;14.85;100.00
7441;BME280;29616;51.950;8.572;2023-07-13T04:10:25;99934.28;;;14.89;100.00
7441;BME280;29616;51.950;8.572;2023-07-13T04:12:55;99921.97;;;14.85;100.00
7441;BME280;29616;51.950;8.572;2023-07-13T04:15:24;99931.78;;;15.02;100.00
7441;BME280;29616;51.950;8.572;2023-07-13T04:17:53;99935.81;;;15.14;100.00
7441;BME280;29616;51.950;8.572;2023-07-13T04:20:24;99938.66;;;15.21;100.00
7441;BME280;29616;51.950;8.572;2023-07-13T04:22:53;99945.09;;;15.28;100.00
7441;BME280;29616;51.950;8.572;2023-07-13T04:25:24;99939.16;;;15.39;100.00
7441;BME280;29616;51.950;8.572;2023-07-13T04:27:55;99937.03;;;15.49;100.00
7441;BME280;29616;51.950;8.572;2023-07-13T04:30:30;99940.53;;;15.57;100.00
7441;BME280;29616;51.950;8.572;2023-07-13T04:32:58;99935.22;;;15.70;100.00
7441;BME280;29616;51.950;8.572;2023-07-13T04:35:27;99941.13;;;15.97;100.00
7441;BME280;29616;51.950;8.572;2023-07-13T04:37:56;99951.00;;;16.06;100.00
7441;BME280;29616;51.950;8.572;2023-07-13T04:40:30;99946.41;;;16.13;100.00
7441;BME280;29616;51.950;8.572;2023-07-13T04:43:05;99949.63;;;16.31;100.00
7441;BME280;29616;51.950;8.572;2023-07-13T04:45:38;99947.22;;;16.43;100.00
7441;BME280;29616;51.950;8.572;2023-07-13T04:48:07;99958.72;;;16.46;100.00
7441;BME280;29616;51.950;8.572;2023-07-13T04:50:36;99953.97;;;16.40;100.00
7441;BME280;29616;51.950;8.572;2023-07-13T04:53:08;99944.56;;;16.49;100.00
7441;BME280;29616;51.950;8.572;2023-07-13T04:55:41;99951.56;;;16.66;100.00
7441;BME280;29616;51.950;8.572;2023-07-13T04:58:11;99928.97;;;16.77;100.00
7441;BME280;29616;51.950;8.572;2023-07-13T05:00:47;99919.13;;;16.68;100.00
7441;BME280;29616;51.950;8.572;2023-07-13T05:03:19;99959.31;;;16.98;100.00
7441;BME280;29616;51.950;8.572;2023-07-13T05:05:57;99973.31;;;17.18;100.00
7441;BME280;29616;51.950;8.572;2023-07-13T05:08:27;99963.66;;;17.29;100.00
7441;BME280;29616;51.950;8.572;2023-07-13T05:11:00;99957.16;;;17.15;100.00
7441;BME280;29616;51.950;8.572;2023-07-13T05:13:30;99973.69;;;17.36;100.00
7441;BME280;29616;51.950;8.572;2023-07-13T05:16:02;99960.22;;;17.48;100.00
7441;BME280;29616;51.950;8.572;2023-07-13T05:18:32;99964.16;;;17.60;100.00
7441;BME280;29616;51.950;8.572;2023-07-13T05:21:15;99960.13;;;17.41;100.00
7441;BME280;29616;51.950;8.572;2023-07-13T05:23:44;99972.09;;;17.70;100.00
7441;BME280;29616;51.950;8.572;2023-07-13T05:26:19;99973.94;;;17.90;100.00
7441;BME280;29616;51.950;8.572;2023-07-13T05:28:55;99954.94;;;17.81;100.00
7441;BME280;29616;51.950;8.572;2023-07-13T05:31:25;99919.94;;;17.94;100.00
7441;BME280;29616;51.950;8.572;2023-07-13T05:33:55;99974.66;;;18.05;100.00
7441;BME280;29616;51.950;8.572;2023-07-13T05:36:27;99981.06;;;18.12;100.00
7441;BME280;29616;51.950;8.572;2023-07-13T05:38:59;99975.25;;;18.35;100.00
7441;BME280;29616;51.950;8.572;2023-07-13T05:41:29;99972.38;;;18.63;100.00
7441;BME280;29616;51.950;8.572;2023-07-13T05:44:02;99889.97;;;18.04;100.00
7441;BME280;29616;51.950;8.572;2023-07-13T05:46:31;99973.69;;;18.73;100.00
7441;BME280;29616;51.950;8.572;2023-07-13T05:49:03;99967.56;;;18.78;100.00
7441;BME280;29616;51.950;8.572;2023-07-13T05:51:32;99975.03;;;18.84;100.00
7441;BME280;29616;51.950;8.572;2023-07-13T05:54:05;99975.50;;;19.20;100.00
7441;BME280;29616;51.950;8.572;2023-07-13T05:56:35;99979.34;;;19.13;100.00
7441;BME280;29616;51.950;8.572;2023-07-13T05:59:08;99936.31;;;19.10;100.00
7441;BME280;29616;51.950;8.572;2023-07-13T06:01:37;99979.63;;;19.51;100.00
7441;BME280;29616;51.950;8.572;2023-07-13T06:04:06;99986.66;;;19.66;100.00
7441;BME280;29616;51.950;8.572;2023-07-13T06:06:36;99987.25;;;19.88;100.00
7441;BME280;29616;51.950;8.572;2023-07-13T06:09:05;99993.84;;;20.00;100.00
7441;BME280;29616;51.950;8.572;2023-07-13T06:11:35;99990.56;;;20.42;100.00
7441;BME280;29616;51.950;8.572;2023-07-13T06:14:05;99990.34;;;20.44;100.00
7441;BME280;29616;51.950;8.572;2023-07-13T06:16:37;99991.28;;;20.25;100.00
7441;BME280;29616;51.950;8.572;2023-07-13T06:19:06;99985.19;;;20.47;100.00
7441;BME280;29616;51.950;8.572;2023-07-13T06:21:37;99987.63;;;21.20;100.00
7441;BME280;29616;51.950;8.572;2023-07-13T06:24:07;99960.53;;;21.15;100.00
7441;BME280;29616;51.950;8.572;2023-07-13T06:26:37;99988.81;;;20.99;100.00
7441;BME280;29616;51.950;8.572;2023-07-13T06:29:07;99981.69;;;20.72;100.00
7441;BME280;29616;51.950;8.572;2023-07-13T06:31:36;99989.13;;;20.27;100.00
7441;BME280;29616;51.950;8.572;2023-07-13T06:34:06;99998.13;;;20.03;100.00
7441;BME280;29616;51.950;8.572;2023-07-13T06:36:40;100001.13;;;19.94;100.00
7441;BME280;29616;51.950;8.572;2023-07-13T06:39:11;100008.19;;;19.71;100.00
7441;BME280;29616;51.950;8.572;2023-07-13T06:41:40;100007.72;;;20.00;100.00
7441;BME280;29616;51.950;8.572;2023-07-13T06:44:14;99991.97;;;19.68;100.00
7441;BME280;29616;51.950;8.572;2023-07-13T06:46:43;99999.22;;;19.49;100.00
7441;BME280;29616;51.950;8.572;2023-07-13T06:49:13;100005.78;;;19.35;100.00
7441;BME280;29616;51.950;8.572;2023-07-13T06:51:42;99999.00;;;19.90;100.00
7441;BME280;29616;51.950;8.572;2023-07-13T06:54:15;100001.13;;;20.01;100.00
7441;BME280;29616;51.950;8.572;2023-07-13T06:56:45;99976.19;;;20.59;100.00
7441;BME280;29616;51.950;8.572;2023-07-13T06:59:18;99996.78;;;20.31;100.00
7441;BME280;29616;51.950;8.572;2023-07-13T07:01:47;100009.16;;;20.35;100.00
7441;BME280;29616;51.950;8.572;2023-07-13T07:04:17;99986.59;;;20.06;100.00
7441;BME280;29616;51.950;8.572;2023-07-13T07:06:46;100012.41;;;21.77;100.00
7441;BME280;29616;51.950;8.572;2023-07-13T07:09:16;100014.06;;;22.09;100.00
7441;BME280;29616;51.950;8.572;2023-07-13T07:11:44;100016.69;;;22.22;100.00
7441;BME280;29616;51.950;8.572;2023-07-13T07:14:31;99941.09;;;21.08;100.00
7441;BME280;29616;51.950;8.572;2023-07-13T07:17:02;100021.50;;;21.66;100.00
7441;BME280;29616;51.950;8.572;2023-07-13T07:19:31;100020.47;;;20.91;100.00
7441;BME280;29616;51.950;8.572;2023-07-13T07:22:02;100015.28;;;21.39;100.00
7441;BME280;29616;51.950;8.572;2023-07-13T07:24:31;100020.94;;;22.07;100.00
7441;BME280;29616;51.950;8.572;2023-07-13T07:27:03;99994.81;;;22.08;100.00
7441;BME280;29616;51.950;8.572;2023-07-13T07:29:36;100002.88;;;22.70;100.00
7441;BME280;29616;51.950;8.572;2023-07-13T07:32:13;100014.13;;;22.64;100.00
7441;BME280;29616;51.950;8.572;2023-07-13T07:35:02;100017.09;;;22.99;100.00
7441;BME280;29616;51.950;8.572;2023-07-13T07:37:31;100028.66;;;22.05;100.00
7441;BME280;29616;51.950;8.572;2023-07-13T07:40:12;100023.63;;;21.95;100.00
7441;BME280;29616;51.950;8.572;2023-07-13T07:42:44;100031.19;;;21.57;100.00
7441;BME280;29616;51.950;8.572;2023-07-13T07:45:16;100005.88;;;21.09;100.00
7441;BME280;29616;51.950;8.572;2023-07-13T07:47:44;100015.72;;;20.98;100.00
7441;BME280;29616;51.950;8.572;2023-07-13T07:50:13;100004.66;;;21.61;100.00
7441;BME280;29616;51.950;8.572;2023-07-13T07:52:45;100027.69;;;21.68;100.00
7441;BME280;29616;51.950;8.572;2023-07-13T07:55:14;100026.78;;;21.99;100.00
7441;BME280;29616;51.950;8.572;2023-07-13T07:57:48;100015.22;;;21.46;100.00
7441;BME280;29616;51.950;8.572;2023-07-13T08:00:22;100022.91;;;21.19;100.00
7441;BME280;29616;51.950;8.572;2023-07-13T08:02:53;100028.78;;;21.36;100.00
7441;BME280;29616;51.950;8.572;2023-07-13T08:05:42;100032.16;;;21.44;100.00
7441;BME280;29616;51.950;8.572;2023-07-13T08:08:31;100028.25;;;21.52;100.00
7441;BME280;29616;51.950;8.572;2023-07-13T08:11:06;100031.16;;;21.63;100.00
7441;BME280;29616;51.950;8.572;2023-07-13T08:13:44;100030.88;;;21.40;100.00
7441;BME280;29616;51.950;8.572;2023-07-13T08:16:14;100025.31;;;21.71;100.00
7441;BME280;29616;51.950;8.572;2023-07-13T08:18:47;100036.56;;;22.08;100.00
7441;BME280;29616;51.950;8.572;2023-07-13T08:21:19;100027.25;;;23.23;100.00
7441;BME280;29616;51.950;8.572;2023-07-13T08:23:49;100024.03;;;23.67;100.00
7441;BME280;29616;51.950;8.572;2023-07-13T08:26:21;100037.41;;;23.88;100.00
7441;BME280;29616;51.950;8.572;2023-07-13T08:28:50;100040.69;;;23.97;100.00
7441;BME280;29616;51.950;8.572;2023-07-13T08:31:23;100034.16;;;24.38;100.00
7441;BME280;29616;51.950;8.572;2023-07-13T08:33:55;100043.22;;;23.98;100.00
7441;BME280;29616;51.950;8.572;2023-07-13T08:36:26;100008.06;;;23.97;100.00
7441;BME280;29616;51.950;8.572;2023-07-13T08:39:03;100042.31;;;24.28;100.00
7441;BME280;29616;51.950;8.572;2023-07-13T08:41:34;100036.91;;;23.91;100.00
7441;BME280;29616;51.950;8.572;2023-07-13T08:44:06;100045.31;;;23.20;100.00
7441;BME280;29616;51.950;8.572;2023-07-13T08:46:42;100034.78;;;23.22;100.00
7441;BME280;29616;51.950;8.572;2023-07-13T08:49:21;100029.00;;;23.06;100.00
7441;BME280;29616;51.950;8.572;2023-07-13T08:51:57;100044.56;;;23.43;100.00
7441;BME280;29616;51.950;8.572;2023-07-13T08:54:32;100044.34;;;23.26;100.00
7441;BME280;29616;51.950;8.572;2023-07-13T08:57:12;100036.69;;;23.22;100.00
7441;BME280;29616;51.950;8.572;2023-07-13T08:59:42;100037.75;;;23.80;100.00
7441;BME280;29616;51.950;8.572;2023-07-13T09:02:25;100043.72;;;23.42;100.00
7441;BME280;29616;51.950;8.572;2023-07-13T09:04:58;100041.91;;;23.48;100.00
7441;BME280;29616;51.950;8.572;2023-07-13T09:07:45;100037.81;;;24.38;100.00
7441;BME280;29616;51.950;8.572;2023-07-13T09:10:27;100045.03;;;23.93;100.00
7441;BME280;29616;51.950;8.572;2023-07-13T09:13:14;100036.13;;;23.61;100.00
7441;BME280;29616;51.950;8.572;2023-07-13T09:15:49;100033.38;;;23.13;100.00
7441;BME280;29616;51.950;8.572;2023-07-13T09:18:27;100029.34;;;23.57;100.00
7441;BME280;29616;51.950;8.572;2023-07-13T09:21:02;100038.66;;;24.39;100.00
7441;BME280;29616;51.950;8.572;2023-07-13T09:23:34;100035.88;;;23.51;100.00
7441;BME280;29616;51.950;8.572;2023-07-13T09:26:06;100030.06;;;23.64;100.00
7441;BME280;29616;51.950;8.572;2023-07-13T09:28:43;100024.28;;;23.77;100.00
7441;BME280;29616;51.950;8.572;2023-07-13T09:31:16;100022.88;;;24.33;100.00
7441;BME280;29616;51.950;8.572;2023-07-13T09:33:49;100036.91;;;24.84;100.00
7441;BME280;29616;51.950;8.572;2023-07-13T09:36:33;100027.16;;;25.26;100.00
7441;BME280;29616;51.950;8.572;2023-07-13T09:39:13;100040.88;;;26.34;100.00
7441;BME280;29616;51.950;8.572;2023-07-13T09:41:49;100037.91;;;26.63;100.00
7441;BME280;29616;51.950;8.572;2023-07-13T09:44:30;100043.06;;;25.82;100.00
7441;BME280;29616;51.950;8.572;2023-07-13T09:47:00;100050.91;;;25.12;100.00
7441;BME280;29616;51.950;8.572;2023-07-13T09:49:36;100032.84;;;24.29;100.00
7441;BME280;29616;51.950;8.572;2023-07-13T09:52:10;100041.34;;;24.10;100.00
7441;BME280;29616;51.950;8.572;2023-07-13T09:54:39;100043.50;;;23.56;100.00
7441;BME280;29616;51.950;8.572;2023-07-13T09:57:22;100040.50;;;23.57;100.00
7441;BME280;29616;51.950;8.572;2023-07-13T10:00:20;100039.19;;;24.99;100.00
7441;BME280;29616;51.950;8.572;2023-07-13T10:03:00;100041.97;;;26.17;100.00
7441;BME280;29616;51.950;8.572;2023-07-13T10:05:40;100037.56;;;25.14;100.00
7441;BME280;29616;51.950;8.572;2023-07-13T10:08:25;100038.63;;;24.85;100.00
7441;BME280;29616;51.950;8.572;2023-07-13T10:11:00;100049.88;;;26.20;100.00
7441;BME280;29616;51.950;8.572;2023-07-13T10:13:36;100035.44;;;25.50;100.00
7441;BME280;29616;51.950;8.572;2023-07-13T10:16:07;100064.31;;;26.67;100.00
7441;BME280;29616;51.950;8.572;2023-07-13T10:18:42;100049.00;;;26.36;100.00
7441;BME280;29616;51.950;8.572;2023-07-13T10:21:18;100045.34;;;25.41;100.00
7441;BME280;29616;51.950;8.572;2023-07-13T10:24:12;100061.97;;;24.79;100.00
7441;BME280;29616;51.950;8.572;2023-07-13T10:26:46;100057.56;;;24.83;100.00
7441;BME280;29616;51.950;8.572;2023-07-13T10:29:16;100050.69;;;24.39;100.00
7441;BME280;29616;51.950;8.572;2023-07-13T10:31:46;100055.03;;;25.21;100.00
7441;BME280;29616;51.950;8.572;2023-07-13T10:34:18;100065.47;;;24.86;100.00
7441;BME280;29616;51.950;8.572;2023-07-13T10:36:49;100058.44;;;24.72;100.00
7441;BME280;29616;51.950;8.572;2023-07-13T10:39:21;100064.50;;;24.69;100.00
7441;BME280;29616;51.950;8.572;2023-07-13T10:41:59;100062.19;;;24.89;100.00
7441;BME280;29616;51.950;8.572;2023-07-13T10:44:37;100068.94;;;26.06;100.00
7441;BME280;29616;51.950;8.572;2023-07-13T10:47:11;100068.75;;;25.63;100.00
7441;BME280;29616;51.950;8.572;2023-07-13T10:49:43;100064.81;;;25.64;100.00
7441;BME280;29616;51.950;8.572;2023-07-13T10:52:42;100061.59;;;25.15;100.00
7441;BME280;29616;51.950;8.572;2023-07-13T10:55:34;100061.59;;;25.15;100.00
7441;BME280;29616;51.950;8.572;2023-07-13T10:58:19;100047.25;;;24.49;100.00
7441;BME280;29616;51.950;8.572;2023-07-13T11:00:51;100063.28;;;24.65;100.00
7441;BME280;29616;51.950;8.572;2023-07-13T11:03:26;100065.63;;;26.09;100.00
7441;BME280;29616;51.950;8.572;2023-07-13T11:06:09;100054.44;;;27.24;97.89
7441;BME280;29616;51.950;8.572;2023-07-13T11:08:55;100065.41;;;27.26;91.02
7441;BME280;29616;51.950;8.572;2023-07-13T11:11:37;100073.19;;;26.59;100.00
7441;BME280;29616;51.950;8.572;2023-07-13T11:14:27;100063.84;;;26.03;97.24
7441;BME280;29616;51.950;8.572;2023-07-13T11:17:35;100065.63;;;26.09;100.00
7441;BME280;29616;51.950;8.572;2023-07-13T11:20:23;100056.75;;;25.51;100.00
7441;BME280;29616;51.950;8.572;2023-07-13T11:23:07;100055.34;;;25.65;100.00
7441;BME280;29616;51.950;8.572;2023-07-13T11:25:42;100069.56;;;25.47;100.00
7441;BME280;29616;51.950;8.572;2023-07-13T11:28:25;100056.38;;;24.79;100.00
7441;BME280;29616;51.950;8.572;2023-07-13T11:31:12;100060.03;;;24.45;100.00
7441;BME280;29616;51.950;8.572;2023-07-13T11:33:55;100068.03;;;24.53;100.00
7441;BME280;29616;51.950;8.572;2023-07-13T11:36:36;100047.94;;;26.20;100.00
7441;BME280;29616;51.950;8.572;2023-07-13T11:39:18;100063.66;;;25.76;100.00
7441;BME280;29616;51.950;8.572;2023-07-13T11:41:53;100064.47;;;24.92;100.00
7441;BME280;29616;51.950;8.572;2023-07-13T11:44:28;100053.63;;;25.64;100.00
7441;BME280;29616;51.950;8.572;2023-07-13T11:47:00;100052.06;;;26.01;100.00
7441;BME280;29616;51.950;8.572;2023-07-13T11:49:42;100059.72;;;26.22;100.00
7441;BME280;29616;51.950;8.572;2023-07-13T11:52:12;100064.59;;;25.65;100.00
7441;BME280;29616;51.950;8.572;2023-07-13T11:54:49;100072.59;;;25.05;100.00
7441;BME280;29616;51.950;8.572;2023-07-13T11:57:28;100049.03;;;25.01;100.00
7441;BME280;29616;51.950;8.572;2023-07-13T12:00:09;100058.28;;;25.30;100.00
7441;BME280;29616;51.950;8.572;2023-07-13T12:02:45;100055.78;;;25.45;100.00
7441;BME280;29616;51.950;8.572;2023-07-13T12:05:16;100074.75;;;25.55;100.00
7441;BME280;29616;51.950;8.572;2023-07-13T12:07:46;100060.53;;;27.16;100.00
7441;BME280;29616;51.950;8.572;2023-07-13T12:10:20;100060.56;;;27.64;98.43
7441;BME280;29616;51.950;8.572;2023-07-13T12:12:58;100054.94;;;27.96;90.10
7441;BME280;29616;51.950;8.572;2023-07-13T12:15:35;100071.28;;;27.99;83.16
7441;BME280;29616;51.950;8.572;2023-07-13T12:18:13;100042.16;;;28.10;85.37
7441;BME280;29616;51.950;8.572;2023-07-13T12:20:44;100018.56;;;28.48;80.68
7441;BME280;29616;51.950;8.572;2023-07-13T12:23:25;100047.16;;;28.40;78.52
7441;BME280;29616;51.950;8.572;2023-07-13T12:25:58;100047.66;;;27.68;92.81
7441;BME280;29616;51.950;8.572;2023-07-13T12:28:35;100036.13;;;26.57;90.08
7441;BME280;29616;51.950;8.572;2023-07-13T12:31:30;100050.66;;;25.25;100.00
7441;BME280;29616;51.950;8.572;2023-07-13T12:34:06;100082.75;;;25.63;100.00
7441;BME280;29616;51.950;8.572;2023-07-13T12:36:40;100066.31;;;27.31;95.21
7441;BME280;29616;51.950;8.572;2023-07-13T12:39:18;100062.09;;;28.09;82.48
7441;BME280;29616;51.950;8.572;2023-07-13T12:41:51;100081.06;;;27.22;85.51
7441;BME280;29616;51.950;8.572;2023-07-13T12:44:29;100075.03;;;26.03;88.40
7441;BME280;29616;51.950;8.572;2023-07-13T12:47:05;100080.75;;;25.47;99.46
7441;BME280;29616;51.950;8.572;2023-07-13T12:49:47;100066.06;;;26.01;92.48
7441;BME280;29616;51.950;8.572;2023-07-13T12:52:22;100071.63;;;25.68;100.00
7441;BME280;29616;51.950;8.572;2023-07-13T12:54:55;100069.28;;;25.20;99.29
7441;BME280;29616;51.950;8.572;2023-07-13T12:57:41;100080.56;;;24.50;100.00
7441;BME280;29616;51.950;8.572;2023-07-13T13:00:31;100049.31;;;24.88;100.00
7441;BME280;29616;51.950;8.572;2023-07-13T13:03:05;100071.16;;;26.04;98.55
7441;BME280;29616;51.950;8.572;2023-07-13T13:05:44;100076.09;;;26.30;94.81
7441;BME280;29616;51.950;8.572;2023-07-13T13:08:14;100059.03;;;26.87;89.73
7441;BME280;29616;51.950;8.572;2023-07-13T13:10:43;100062.28;;;27.71;77.46
7441;BME280;29616;51.950;8.572;2023-07-13T13:13:16;100063.59;;;28.58;72.85
7441;BME280;29616;51.950;8.572;2023-07-13T13:15:54;100053.75;;;29.03;68.01
7441;BME280;29616;51.950;8.572;2023-07-13T13:18:28;100059.53;;;28.76;68.49
7441;BME280;29616;51.950;8.572;2023-07-13T13:20:59;100074.16;;;29.30;66.59
7441;BME280;29616;51.950;8.572;2023-07-13T13:23:28;100066.66;;;28.99;63.21
7441;BME280;29616;51.950;8.572;2023-07-13T13:25:58;100067.38;;;28.69;64.16
7441;BME280;29616;51.950;8.572;2023-07-13T13:28:28;100064.31;;;29.27;61.76